sensor_id;sensor_type;location;lat;lon;timestamp;P1;durP1;ratioP1;P2;durP2;ratioP2
58310;SDS011;45001;52.218;5.154;2022-07-21T00:01:20;4.80;;;4.28;;
58310;SDS011;45001;52.218;5.154;2022-07-21T00:03:45;5.47;;;4.97;;
58310;SDS011;45001;52.218;5.154;2022-07-21T00:06:11;5.43;;;4.50;;
58310;SDS011;45001;52.218;5.154;2022-07-21T00:08:36;5.35;;;4.85;;
58310;SDS011;45001;52.218;5.154;2022-07-21T00:11:01;4.55;;;4.15;;
58310;SDS011;45001;52.218;5.154;2022-07-21T00:13:27;4.97;;;4.47;;
58310;SDS011;45001;52.218;5.154;2022-07-21T00:15:52;4.85;;;4.35;;
58310;SDS011;45001;52.218;5.154;2022-07-21T00:18:18;5.65;;;4.57;;
58310;SDS011;45001;52.218;5.154;2022-07-21T00:20:44;5.47;;;4.30;;
58310;SDS011;45001;52.218;5.154;2022-07-21T00:23:12;5.07;;;4.30;;
58310;SDS011;45001;52.218;5.154;2022-07-21T00:25:37;5.50;;;4.75;;
58310;SDS011;45001;52.218;5.154;2022-07-21T00:28:03;6.00;;;4.55;;
58310;SDS011;45001;52.218;5.154;2022-07-21T00:30:29;6.90;;;4.57;;
58310;SDS011;45001;52.218;5.154;2022-07-21T00:32:55;5.63;;;4.25;;
58310;SDS011;45001;52.218;5.154;2022-07-21T00:35:20;5.80;;;4.35;;
58310;SDS011;45001;52.218;5.154;2022-07-21T00:37:46;5.20;;;4.70;;
58310;SDS011;45001;52.218;5.154;2022-07-21T00:40:12;4.63;;;4.00;;
58310;SDS011;45001;52.218;5.154;2022-07-21T00:42:39;4.47;;;3.95;;
58310;SDS011;45001;52.218;5.154;2022-07-21T00:45:05;5.13;;;4.10;;
58310;SDS011;45001;52.218;5.154;2022-07-21T00:47:31;4.75;;;4.25;;
58310;SDS011;45001;52.218;5.154;2022-07-21T00:49:58;6.10;;;3.97;;
58310;SDS011;45001;52.218;5.154;2022-07-21T00:52:24;5.72;;;4.28;;
58310;SDS011;45001;52.218;5.154;2022-07-21T00:54:50;4.18;;;3.75;;
58310;SDS011;45001;52.218;5.154;2022-07-21T00:57:17;4.45;;;4.05;;
58310;SDS011;45001;52.218;5.154;2022-07-21T00:59:43;4.28;;;3.72;;
58310;SDS011;45001;52.218;5.154;2022-07-21T01:02:09;4.68;;;4.22;;
58310;SDS011;45001;52.218;5.154;2022-07-21T01:04:37;5.63;;;4.20;;
58310;SDS011;45001;52.218;5.154;2022-07-21T01:07:03;4.10;;;3.70;;
58310;SDS011;45001;52.218;5.154;2022-07-21T01:09:30;4.22;;;3.83;;
58310;SDS011;45001;52.218;5.154;2022-07-21T01:11:56;4.80;;;4.03;;
58310;SDS011;45001;52.218;5.154;2022-07-21T01:14:22;4.40;;;4.00;;
58310;SDS011;45001;52.218;5.154;2022-07-21T01:16:47;4.95;;;3.78;;
58310;SDS011;45001;52.218;5.154;2022-07-21T01:19:13;4.55;;;3.80;;
58310;SDS011;45001;52.218;5.154;2022-07-21T01:21:39;3.97;;;3.58;;
58310;SDS011;45001;52.218;5.154;2022-07-21T01:24:06;4.82;;;4.05;;
58310;SDS011;45001;52.218;5.154;2022-07-21T01:26:45;4.88;;;4.05;;
58310;SDS011;45001;52.218;5.154;2022-07-21T01:29:12;4.80;;;4.13;;
58310;SDS011;45001;52.218;5.154;2022-07-21T01:31:39;4.07;;;3.60;;
58310;SDS011;45001;52.218;5.154;2022-07-21T01:34:07;4.80;;;4.00;;
58310;SDS011;45001;52.218;5.154;2022-07-21T01:36:33;4.22;;;3.83;;
58310;SDS011;45001;52.218;5.154;2022-07-21T01:38:58;4.70;;;3.83;;
58310;SDS011;45001;52.218;5.154;2022-07-21T01:41:43;4.03;;;3.63;;
58310;SDS011;45001;52.218;5.154;2022-07-21T01:44:09;5.13;;;4.18;;
58310;SDS011;45001;52.218;5.154;2022-07-21T01:46:37;4.32;;;3.85;;
58310;SDS011;45001;52.218;5.154;2022-07-21T01:49:04;4.85;;;3.95;;
58310;SDS011;45001;52.218;5.154;2022-07-21T01:51:30;3.90;;;3.50;;
58310;SDS011;45001;52.218;5.154;2022-07-21T01:53:56;4.40;;;4.00;;
58310;SDS011;45001;52.218;5.154;2022-07-21T01:56:22;4.25;;;3.75;;
58310;SDS011;45001;52.218;5.154;2022-07-21T01:58:49;4.35;;;3.55;;
58310;SDS011;45001;52.218;5.154;2022-07-21T02:01:16;4.28;;;3.63;;
58310;SDS011;45001;52.218;5.154;2022-07-21T02:03:42;5.22;;;3.38;;
58310;SDS011;45001;52.218;5.154;2022-07-21T02:06:08;4.35;;;3.95;;
58310;SDS011;45001;52.218;5.154;2022-07-21T02:08:34;4.35;;;3.95;;
58310;SDS011;45001;52.218;5.154;2022-07-21T02:11:00;4.07;;;3.60;;
58310;SDS011;45001;52.218;5.154;2022-07-21T02:13:25;5.95;;;3.90;;
58310;SDS011;45001;52.218;5.154;2022-07-21T02:15:51;5.65;;;4.00;;
58310;SDS011;45001;52.218;5.154;2022-07-21T02:18:17;5.32;;;3.95;;
58310;SDS011;45001;52.218;5.154;2022-07-21T02:20:43;4.22;;;3.58;;
58310;SDS011;45001;52.218;5.154;2022-07-21T02:23:09;4.07;;;3.63;;
58310;SDS011;45001;52.218;5.154;2022-07-21T02:25:35;4.97;;;4.22;;
58310;SDS011;45001;52.218;5.154;2022-07-21T02:28:00;4.00;;;3.50;;
58310;SDS011;45001;52.218;5.154;2022-07-21T02:32:59;4.28;;;3.88;;
58310;SDS011;45001;52.218;5.154;2022-07-21T02:35:24;4.72;;;3.97;;
58310;SDS011;45001;52.218;5.154;2022-07-21T02:37:50;5.25;;;4.15;;
58310;SDS011;45001;52.218;5.154;2022-07-21T02:40:15;4.15;;;3.47;;
58310;SDS011;45001;52.218;5.154;2022-07-21T02:42:41;4.53;;;4.10;;
58310;SDS011;45001;52.218;5.154;2022-07-21T02:45:07;4.57;;;3.67;;
58310;SDS011;45001;52.218;5.154;2022-07-21T02:47:46;4.57;;;3.72;;
58310;SDS011;45001;52.218;5.154;2022-07-21T02:50:19;4.93;;;4.20;;
58310;SDS011;45001;52.218;5.154;2022-07-21T02:52:46;4.30;;;3.90;;
58310;SDS011;45001;52.218;5.154;2022-07-21T02:55:12;4.35;;;3.95;;
58310;SDS011;45001;52.218;5.154;2022-07-21T02:57:38;4.60;;;4.20;;
58310;SDS011;45001;52.218;5.154;2022-07-21T03:00:04;5.05;;;4.20;;
58310;SDS011;45001;52.218;5.154;2022-07-21T03:02:30;4.97;;;4.30;;
58310;SDS011;45001;52.218;5.154;2022-07-21T03:04:56;4.10;;;3.70;;
58310;SDS011;45001;52.218;5.154;2022-07-21T03:07:21;3.92;;;3.53;;
58310;SDS011;45001;52.218;5.154;2022-07-21T03:09:46;4.95;;;4.45;;
58310;SDS011;45001;52.218;5.154;2022-07-21T03:12:12;4.93;;;3.97;;
58310;SDS011;45001;52.218;5.154;2022-07-21T03:14:37;5.80;;;3.93;;
58310;SDS011;45001;52.218;5.154;2022-07-21T03:17:02;4.40;;;3.73;;
58310;SDS011;45001;52.218;5.154;2022-07-21T03:19:27;4.57;;;4.13;;
58310;SDS011;45001;52.218;5.154;2022-07-21T03:21:53;5.50;;;4.25;;
58310;SDS011;45001;52.218;5.154;2022-07-21T03:24:18;5.07;;;4.30;;
58310;SDS011;45001;52.218;5.154;2022-07-21T03:26:43;5.38;;;4.25;;
58310;SDS011;45001;52.218;5.154;2022-07-21T03:29:09;4.95;;;4.32;;
58310;SDS011;45001;52.218;5.154;2022-07-21T03:31:34;4.68;;;3.97;;
58310;SDS011;45001;52.218;5.154;2022-07-21T03:33:59;4.30;;;3.90;;
58310;SDS011;45001;52.218;5.154;2022-07-21T03:36:25;4.67;;;4.23;;
58310;SDS011;45001;52.218;5.154;2022-07-21T03:38:50;5.55;;;4.30;;
58310;SDS011;45001;52.218;5.154;2022-07-21T03:41:16;4.30;;;3.90;;
58310;SDS011;45001;52.218;5.154;2022-07-21T03:43:41;5.10;;;4.57;;
58310;SDS011;45001;52.218;5.154;2022-07-21T03:46:06;5.23;;;4.60;;
58310;SDS011;45001;52.218;5.154;2022-07-21T03:48:32;4.63;;;4.20;;
58310;SDS011;45001;52.218;5.154;2022-07-21T03:50:57;4.97;;;4.47;;
58310;SDS011;45001;52.218;5.154;2022-07-21T03:53:22;4.63;;;4.23;;
58310;SDS011;45001;52.218;5.154;2022-07-21T03:55:48;5.30;;;4.40;;
58310;SDS011;45001;52.218;5.154;2022-07-21T03:58:13;4.80;;;4.30;;
58310;SDS011;45001;52.218;5.154;2022-07-21T04:00:40;5.20;;;4.70;;
58310;SDS011;45001;52.218;5.154;2022-07-21T04:03:07;6.47;;;4.30;;
58310;SDS011;45001;52.218;5.154;2022-07-21T04:05:33;5.35;;;4.72;;
58310;SDS011;45001;52.218;5.154;2022-07-21T04:07:59;5.75;;;4.88;;
58310;SDS011;45001;52.218;5.154;2022-07-21T04:10:26;5.60;;;4.97;;
58310;SDS011;45001;52.218;5.154;2022-07-21T04:12:54;5.60;;;4.43;;
58310;SDS011;45001;52.218;5.154;2022-07-21T04:15:20;5.10;;;4.43;;
58310;SDS011;45001;52.218;5.154;2022-07-21T04:17:46;5.60;;;5.07;;
58310;SDS011;45001;52.218;5.154;2022-07-21T04:20:12;5.80;;;4.30;;
58310;SDS011;45001;52.218;5.154;2022-07-21T04:22:39;5.75;;;4.90;;
58310;SDS011;45001;52.218;5.154;2022-07-21T04:25:05;5.18;;;4.50;;
58310;SDS011;45001;52.218;5.154;2022-07-21T04:27:32;5.20;;;4.57;;
58310;SDS011;45001;52.218;5.154;2022-07-21T04:29:57;6.80;;;4.75;;
58310;SDS011;45001;52.218;5.154;2022-07-21T04:32:23;5.30;;;4.60;;
58310;SDS011;45001;52.218;5.154;2022-07-21T04:34:48;5.57;;;4.65;;
58310;SDS011;45001;52.218;5.154;2022-07-21T04:37:14;6.35;;;4.70;;
58310;SDS011;45001;52.218;5.154;2022-07-21T04:39:39;5.47;;;4.78;;
58310;SDS011;45001;52.218;5.154;2022-07-21T04:42:04;5.32;;;4.10;;
58310;SDS011;45001;52.218;5.154;2022-07-21T04:44:30;4.97;;;4.00;;
58310;SDS011;45001;52.218;5.154;2022-07-21T04:46:56;4.93;;;4.43;;
58310;SDS011;45001;52.218;5.154;2022-07-21T04:49:21;5.25;;;4.20;;
58310;SDS011;45001;52.218;5.154;2022-07-21T04:51:46;5.00;;;4.50;;
58310;SDS011;45001;52.218;5.154;2022-07-21T04:54:12;5.33;;;4.23;;
58310;SDS011;45001;52.218;5.154;2022-07-21T04:56:40;4.78;;;4.25;;
58310;SDS011;45001;52.218;5.154;2022-07-21T04:59:07;5.05;;;4.10;;
58310;SDS011;45001;52.218;5.154;2022-07-21T05:01:33;5.80;;;4.47;;
58310;SDS011;45001;52.218;5.154;2022-07-21T05:03:59;5.10;;;4.47;;
58310;SDS011;45001;52.218;5.154;2022-07-21T05:06:24;5.33;;;4.50;;
58310;SDS011;45001;52.218;5.154;2022-07-21T05:08:50;5.88;;;4.82;;
58310;SDS011;45001;52.218;5.154;2022-07-21T05:11:15;5.18;;;4.60;;
58310;SDS011;45001;52.218;5.154;2022-07-21T05:13:40;4.95;;;4.45;;
58310;SDS011;45001;52.218;5.154;2022-07-21T05:16:06;6.20;;;4.50;;
58310;SDS011;45001;52.218;5.154;2022-07-21T05:18:31;4.73;;;4.23;;
58310;SDS011;45001;52.218;5.154;2022-07-21T05:20:57;4.72;;;4.22;;
58310;SDS011;45001;52.218;5.154;2022-07-21T05:23:22;4.53;;;4.13;;
58310;SDS011;45001;52.218;5.154;2022-07-21T05:25:47;4.93;;;4.43;;
58310;SDS011;45001;52.218;5.154;2022-07-21T05:28:13;5.53;;;4.37;;
58310;SDS011;45001;52.218;5.154;2022-07-21T05:30:38;5.03;;;4.53;;
58310;SDS011;45001;52.218;5.154;2022-07-21T05:33:03;12.68;;;9.07;;
58310;SDS011;45001;52.218;5.154;2022-07-21T05:35:28;8.87;;;6.20;;
58310;SDS011;45001;52.218;5.154;2022-07-21T05:37:54;9.45;;;7.80;;
58310;SDS011;45001;52.218;5.154;2022-07-21T05:40:20;10.97;;;9.10;;
58310;SDS011;45001;52.218;5.154;2022-07-21T05:42:45;12.13;;;9.55;;
58310;SDS011;45001;52.218;5.154;2022-07-21T05:45:10;12.35;;;10.13;;
58310;SDS011;45001;52.218;5.154;2022-07-21T05:47:36;11.98;;;9.98;;
58310;SDS011;45001;52.218;5.154;2022-07-21T05:50:02;11.77;;;10.18;;
58310;SDS011;45001;52.218;5.154;2022-07-21T05:52:28;12.57;;;10.43;;
58310;SDS011;45001;52.218;5.154;2022-07-21T05:54:53;12.88;;;10.50;;
58310;SDS011;45001;52.218;5.154;2022-07-21T05:57:18;13.77;;;11.52;;
58310;SDS011;45001;52.218;5.154;2022-07-21T05:59:45;16.13;;;11.75;;
58310;SDS011;45001;52.218;5.154;2022-07-21T06:02:10;14.40;;;11.43;;
58310;SDS011;45001;52.218;5.154;2022-07-21T06:04:36;13.93;;;10.75;;
58310;SDS011;45001;52.218;5.154;2022-07-21T06:07:01;14.00;;;11.00;;
58310;SDS011;45001;52.218;5.154;2022-07-21T06:09:26;13.23;;;10.00;;
58310;SDS011;45001;52.218;5.154;2022-07-21T06:11:52;13.82;;;9.75;;
58310;SDS011;45001;52.218;5.154;2022-07-21T06:14:17;13.73;;;10.93;;
58310;SDS011;45001;52.218;5.154;2022-07-21T06:16:42;15.80;;;10.73;;
58310;SDS011;45001;52.218;5.154;2022-07-21T06:19:08;13.30;;;10.45;;
58310;SDS011;45001;52.218;5.154;2022-07-21T06:21:33;15.07;;;10.50;;
58310;SDS011;45001;52.218;5.154;2022-07-21T06:23:59;18.80;;;11.02;;
58310;SDS011;45001;52.218;5.154;2022-07-21T06:26:24;14.23;;;10.27;;
58310;SDS011;45001;52.218;5.154;2022-07-21T06:28:50;15.98;;;11.00;;
58310;SDS011;45001;52.218;5.154;2022-07-21T06:31:15;17.80;;;11.20;;
58310;SDS011;45001;52.218;5.154;2022-07-21T06:33:41;14.63;;;10.95;;
58310;SDS011;45001;52.218;5.154;2022-07-21T06:36:07;14.95;;;11.20;;
58310;SDS011;45001;52.218;5.154;2022-07-21T06:38:33;16.05;;;11.20;;
58310;SDS011;45001;52.218;5.154;2022-07-21T06:40:58;15.00;;;10.90;;
58310;SDS011;45001;52.218;5.154;2022-07-21T06:43:24;17.88;;;10.85;;
58310;SDS011;45001;52.218;5.154;2022-07-21T06:45:50;19.50;;;12.02;;
58310;SDS011;45001;52.218;5.154;2022-07-21T06:48:16;14.40;;;11.30;;
58310;SDS011;45001;52.218;5.154;2022-07-21T06:50:41;16.75;;;11.70;;
58310;SDS011;45001;52.218;5.154;2022-07-21T06:53:07;16.58;;;11.65;;
58310;SDS011;45001;52.218;5.154;2022-07-21T06:55:32;19.55;;;12.13;;
58310;SDS011;45001;52.218;5.154;2022-07-21T06:57:58;18.98;;;12.27;;
58310;SDS011;45001;52.218;5.154;2022-07-21T07:00:33;17.20;;;12.32;;
58310;SDS011;45001;52.218;5.154;2022-07-21T07:02:59;20.83;;;14.45;;
58310;SDS011;45001;52.218;5.154;2022-07-21T07:05:26;22.73;;;15.43;;
58310;SDS011;45001;52.218;5.154;2022-07-21T07:07:54;28.05;;;17.25;;
58310;SDS011;45001;52.218;5.154;2022-07-21T07:10:20;23.45;;;16.88;;
58310;SDS011;45001;52.218;5.154;2022-07-21T07:12:45;28.38;;;17.70;;
58310;SDS011;45001;52.218;5.154;2022-07-21T07:15:10;27.42;;;18.33;;
58310;SDS011;45001;52.218;5.154;2022-07-21T07:17:36;25.88;;;17.02;;
58310;SDS011;45001;52.218;5.154;2022-07-21T07:20:01;28.48;;;16.80;;
58310;SDS011;45001;52.218;5.154;2022-07-21T07:22:26;26.55;;;17.55;;
58310;SDS011;45001;52.218;5.154;2022-07-21T07:24:52;23.98;;;16.83;;
58310;SDS011;45001;52.218;5.154;2022-07-21T07:27:17;24.58;;;16.70;;
58310;SDS011;45001;52.218;5.154;2022-07-21T07:29:43;24.40;;;16.83;;
58310;SDS011;45001;52.218;5.154;2022-07-21T07:32:08;22.33;;;16.90;;
58310;SDS011;45001;52.218;5.154;2022-07-21T07:34:33;25.17;;;16.95;;
58310;SDS011;45001;52.218;5.154;2022-07-21T07:36:58;26.77;;;17.60;;
58310;SDS011;45001;52.218;5.154;2022-07-21T07:39:24;26.53;;;18.33;;
58310;SDS011;45001;52.218;5.154;2022-07-21T07:41:49;30.52;;;18.70;;
58310;SDS011;45001;52.218;5.154;2022-07-21T07:44:14;26.50;;;18.53;;
58310;SDS011;45001;52.218;5.154;2022-07-21T07:46:40;22.95;;;16.52;;
58310;SDS011;45001;52.218;5.154;2022-07-21T07:49:06;21.05;;;14.82;;
58310;SDS011;45001;52.218;5.154;2022-07-21T07:51:32;25.30;;;16.52;;
58310;SDS011;45001;52.218;5.154;2022-07-21T07:53:58;22.67;;;14.98;;
58310;SDS011;45001;52.218;5.154;2022-07-21T07:56:25;26.25;;;18.13;;
58310;SDS011;45001;52.218;5.154;2022-07-21T07:58:50;24.07;;;15.53;;
58310;SDS011;45001;52.218;5.154;2022-07-21T08:01:16;26.70;;;17.03;;
58310;SDS011;45001;52.218;5.154;2022-07-21T08:03:42;24.75;;;15.40;;
58310;SDS011;45001;52.218;5.154;2022-07-21T08:06:08;23.30;;;16.55;;
58310;SDS011;45001;52.218;5.154;2022-07-21T08:08:33;29.27;;;16.25;;
58310;SDS011;45001;52.218;5.154;2022-07-21T08:10:59;23.85;;;16.70;;
58310;SDS011;45001;52.218;5.154;2022-07-21T08:13:25;25.02;;;15.55;;
58310;SDS011;45001;52.218;5.154;2022-07-21T08:15:50;24.08;;;15.07;;
58310;SDS011;45001;52.218;5.154;2022-07-21T08:18:16;21.27;;;14.50;;
58310;SDS011;45001;52.218;5.154;2022-07-21T08:20:42;26.25;;;16.38;;
58310;SDS011;45001;52.218;5.154;2022-07-21T08:23:08;20.60;;;13.95;;
58310;SDS011;45001;52.218;5.154;2022-07-21T08:25:33;20.80;;;13.30;;
58310;SDS011;45001;52.218;5.154;2022-07-21T08:27:59;19.67;;;12.95;;
58310;SDS011;45001;52.218;5.154;2022-07-21T08:30:24;18.02;;;12.20;;
58310;SDS011;45001;52.218;5.154;2022-07-21T08:32:50;17.77;;;12.27;;
58310;SDS011;45001;52.218;5.154;2022-07-21T08:35:15;16.55;;;10.82;;
58310;SDS011;45001;52.218;5.154;2022-07-21T08:37:41;13.43;;;8.73;;
58310;SDS011;45001;52.218;5.154;2022-07-21T08:40:08;11.35;;;7.97;;
58310;SDS011;45001;52.218;5.154;2022-07-21T08:42:36;10.60;;;6.57;;
58310;SDS011;45001;52.218;5.154;2022-07-21T08:45:02;9.98;;;6.32;;
58310;SDS011;45001;52.218;5.154;2022-07-21T08:47:29;9.18;;;5.85;;
58310;SDS011;45001;52.218;5.154;2022-07-21T08:49:55;8.00;;;4.57;;
58310;SDS011;45001;52.218;5.154;2022-07-21T08:52:22;8.93;;;4.57;;
58310;SDS011;45001;52.218;5.154;2022-07-21T08:54:48;6.45;;;4.32;;
58310;SDS011;45001;52.218;5.154;2022-07-21T08:57:15;5.00;;;3.38;;
58310;SDS011;45001;52.218;5.154;2022-07-21T08:59:42;5.55;;;3.47;;
58310;SDS011;45001;52.218;5.154;2022-07-21T09:02:24;4.55;;;3.20;;
58310;SDS011;45001;52.218;5.154;2022-07-21T09:04:51;5.28;;;3.30;;
58310;SDS011;45001;52.218;5.154;2022-07-21T09:07:21;5.00;;;3.28;;
58310;SDS011;45001;52.218;5.154;2022-07-21T09:09:54;5.65;;;3.28;;
58310;SDS011;45001;52.218;5.154;2022-07-21T09:12:23;4.43;;;3.58;;
58310;SDS011;45001;52.218;5.154;2022-07-21T09:14:51;4.10;;;3.25;;
58310;SDS011;45001;52.218;5.154;2022-07-21T09:17:17;4.07;;;3.08;;
58310;SDS011;45001;52.218;5.154;2022-07-21T09:19:45;4.05;;;2.75;;
58310;SDS011;45001;52.218;5.154;2022-07-21T09:22:13;3.80;;;2.90;;
58310;SDS011;45001;52.218;5.154;2022-07-21T09:24:42;3.60;;;2.83;;
58310;SDS011;45001;52.218;5.154;2022-07-21T09:29:50;3.95;;;2.75;;
58310;SDS011;45001;52.218;5.154;2022-07-21T09:34:45;3.67;;;2.70;;
58310;SDS011;45001;52.218;5.154;2022-07-21T09:37:11;3.00;;;2.60;;
58310;SDS011;45001;52.218;5.154;2022-07-21T09:39:43;3.75;;;2.40;;
58310;SDS011;45001;52.218;5.154;2022-07-21T09:44:50;2.60;;;2.28;;
58310;SDS011;45001;52.218;5.154;2022-07-21T09:47:18;5.18;;;2.20;;
58310;SDS011;45001;52.218;5.154;2022-07-21T09:49:45;2.70;;;2.03;;
58310;SDS011;45001;52.218;5.154;2022-07-21T09:54:45;3.10;;;1.98;;
58310;SDS011;45001;52.218;5.154;2022-07-21T09:57:11;3.80;;;1.90;;
58310;SDS011;45001;52.218;5.154;2022-07-21T09:59:37;3.53;;;2.33;;
58310;SDS011;45001;52.218;5.154;2022-07-21T10:02:03;2.88;;;2.05;;
58310;SDS011;45001;52.218;5.154;2022-07-21T10:04:30;3.22;;;2.40;;
58310;SDS011;45001;52.218;5.154;2022-07-21T10:06:56;3.15;;;1.88;;
58310;SDS011;45001;52.218;5.154;2022-07-21T10:09:22;4.15;;;2.22;;
58310;SDS011;45001;52.218;5.154;2022-07-21T10:11:48;4.18;;;2.20;;
58310;SDS011;45001;52.218;5.154;2022-07-21T10:14:13;3.63;;;2.60;;
58310;SDS011;45001;52.218;5.154;2022-07-21T10:16:39;6.15;;;2.58;;
58310;SDS011;45001;52.218;5.154;2022-07-21T10:21:46;4.95;;;3.20;;
58310;SDS011;45001;52.218;5.154;2022-07-21T10:24:13;4.38;;;3.00;;
58310;SDS011;45001;52.218;5.154;2022-07-21T10:26:39;5.43;;;2.90;;
58310;SDS011;45001;52.218;5.154;2022-07-21T10:29:58;4.57;;;3.38;;
58310;SDS011;45001;52.218;5.154;2022-07-21T10:32:29;4.10;;;2.88;;
58310;SDS011;45001;52.218;5.154;2022-07-21T10:35:04;5.13;;;4.15;;
58310;SDS011;45001;52.218;5.154;2022-07-21T10:37:53;5.97;;;3.10;;
58310;SDS011;45001;52.218;5.154;2022-07-21T10:42:44;4.77;;;3.20;;
58310;SDS011;45001;52.218;5.154;2022-07-21T10:45:29;6.38;;;3.70;;
58310;SDS011;45001;52.218;5.154;2022-07-21T10:47:55;4.82;;;3.40;;
58310;SDS011;45001;52.218;5.154;2022-07-21T10:50:40;8.20;;;3.90;;
58310;SDS011;45001;52.218;5.154;2022-07-21T10:55:48;5.60;;;3.72;;
58310;SDS011;45001;52.218;5.154;2022-07-21T10:58:37;4.72;;;3.58;;
58310;SDS011;45001;52.218;5.154;2022-07-21T11:03:37;4.60;;;3.03;;
58310;SDS011;45001;52.218;5.154;2022-07-21T11:06:20;4.78;;;3.30;;
58310;SDS011;45001;52.218;5.154;2022-07-21T11:11:28;4.88;;;3.15;;
58310;SDS011;45001;52.218;5.154;2022-07-21T11:19:35;5.13;;;2.78;;
58310;SDS011;45001;52.218;5.154;2022-07-21T11:22:21;6.43;;;3.10;;
58310;SDS011;45001;52.218;5.154;2022-07-21T11:24:49;5.82;;;3.17;;
58310;SDS011;45001;52.218;5.154;2022-07-21T11:27:23;4.68;;;2.80;;
58310;SDS011;45001;52.218;5.154;2022-07-21T11:29:50;4.57;;;2.60;;
58310;SDS011;45001;52.218;5.154;2022-07-21T11:32:18;4.43;;;3.05;;
58310;SDS011;45001;52.218;5.154;2022-07-21T11:34:54;3.88;;;2.40;;
58310;SDS011;45001;52.218;5.154;2022-07-21T11:37:38;4.00;;;2.55;;
58310;SDS011;45001;52.218;5.154;2022-07-21T11:40:16;4.65;;;2.55;;
58310;SDS011;45001;52.218;5.154;2022-07-21T11:42:44;3.25;;;2.40;;
58310;SDS011;45001;52.218;5.154;2022-07-21T11:45:12;4.17;;;2.40;;
58310;SDS011;45001;52.218;5.154;2022-07-21T11:47:38;3.60;;;2.15;;
58310;SDS011;45001;52.218;5.154;2022-07-21T11:50:04;3.30;;;1.95;;
58310;SDS011;45001;52.218;5.154;2022-07-21T11:55:00;4.65;;;2.00;;
58310;SDS011;45001;52.218;5.154;2022-07-21T11:57:27;2.92;;;2.20;;
58310;SDS011;45001;52.218;5.154;2022-07-21T11:59:53;2.60;;;2.03;;
58310;SDS011;45001;52.218;5.154;2022-07-21T12:02:21;3.05;;;1.77;;
58310;SDS011;45001;52.218;5.154;2022-07-21T12:04:51;3.00;;;2.17;;
58310;SDS011;45001;52.218;5.154;2022-07-21T12:07:29;3.33;;;2.13;;
58310;SDS011;45001;52.218;5.154;2022-07-21T12:09:58;3.92;;;2.00;;
58310;SDS011;45001;52.218;5.154;2022-07-21T12:14:55;4.50;;;1.95;;
58310;SDS011;45001;52.218;5.154;2022-07-21T12:17:34;2.45;;;1.73;;
58310;SDS011;45001;52.218;5.154;2022-07-21T12:20:03;2.47;;;1.63;;
58310;SDS011;45001;52.218;5.154;2022-07-21T12:22:33;2.88;;;1.63;;
58310;SDS011;45001;52.218;5.154;2022-07-21T12:24:59;2.30;;;1.70;;
58310;SDS011;45001;52.218;5.154;2022-07-21T12:27:24;2.25;;;1.30;;
58310;SDS011;45001;52.218;5.154;2022-07-21T12:29:50;7.45;;;1.65;;
58310;SDS011;45001;52.218;5.154;2022-07-21T12:32:23;2.30;;;1.50;;
58310;SDS011;45001;52.218;5.154;2022-07-21T12:35:15;2.40;;;1.30;;
58310;SDS011;45001;52.218;5.154;2022-07-21T12:38:18;3.50;;;1.45;;
58310;SDS011;45001;52.218;5.154;2022-07-21T12:40:44;4.80;;;1.40;;
58310;SDS011;45001;52.218;5.154;2022-07-21T12:43:15;3.00;;;1.23;;
58310;SDS011;45001;52.218;5.154;2022-07-21T12:45:50;5.15;;;1.40;;
58310;SDS011;45001;52.218;5.154;2022-07-21T12:48:25;2.63;;;1.30;;
58310;SDS011;45001;52.218;5.154;2022-07-21T12:53:29;4.78;;;1.60;;
58310;SDS011;45001;52.218;5.154;2022-07-21T12:55:55;3.65;;;1.38;;
58310;SDS011;45001;52.218;5.154;2022-07-21T12:58:21;1.60;;;1.15;;
58310;SDS011;45001;52.218;5.154;2022-07-21T13:00:47;2.22;;;1.10;;
58310;SDS011;45001;52.218;5.154;2022-07-21T13:03:13;2.55;;;1.17;;
58310;SDS011;45001;52.218;5.154;2022-07-21T13:05:39;1.67;;;1.05;;
58310;SDS011;45001;52.218;5.154;2022-07-21T13:08:04;3.03;;;1.02;;
58310;SDS011;45001;52.218;5.154;2022-07-21T13:10:29;2.60;;;1.23;;
58310;SDS011;45001;52.218;5.154;2022-07-21T13:12:55;4.07;;;1.33;;
58310;SDS011;45001;52.218;5.154;2022-07-21T13:15:20;2.15;;;1.15;;
58310;SDS011;45001;52.218;5.154;2022-07-21T13:17:46;1.85;;;1.17;;
58310;SDS011;45001;52.218;5.154;2022-07-21T13:20:12;2.45;;;1.00;;
58310;SDS011;45001;52.218;5.154;2022-07-21T13:22:37;1.45;;;0.80;;
58310;SDS011;45001;52.218;5.154;2022-07-21T13:25:03;2.17;;;1.20;;
58310;SDS011;45001;52.218;5.154;2022-07-21T13:27:29;1.92;;;1.05;;
58310;SDS011;45001;52.218;5.154;2022-07-21T13:29:54;2.50;;;1.13;;
58310;SDS011;45001;52.218;5.154;2022-07-21T13:32:20;2.03;;;1.00;;
58310;SDS011;45001;52.218;5.154;2022-07-21T13:34:45;3.17;;;1.30;;
58310;SDS011;45001;52.218;5.154;2022-07-21T13:37:11;2.08;;;1.02;;
58310;SDS011;45001;52.218;5.154;2022-07-21T13:39:39;2.88;;;1.23;;
58310;SDS011;45001;52.218;5.154;2022-07-21T13:42:05;3.13;;;1.23;;
58310;SDS011;45001;52.218;5.154;2022-07-21T13:44:32;3.20;;;1.70;;
58310;SDS011;45001;52.218;5.154;2022-07-21T13:46:59;3.30;;;1.50;;
58310;SDS011;45001;52.218;5.154;2022-07-21T13:49:24;3.65;;;1.75;;
58310;SDS011;45001;52.218;5.154;2022-07-21T13:51:49;2.80;;;1.40;;
58310;SDS011;45001;52.218;5.154;2022-07-21T13:54:15;2.55;;;1.23;;
58310;SDS011;45001;52.218;5.154;2022-07-21T13:56:40;3.55;;;1.92;;
58310;SDS011;45001;52.218;5.154;2022-07-21T13:59:05;2.70;;;1.33;;
58310;SDS011;45001;52.218;5.154;2022-07-21T14:01:31;2.22;;;1.42;;
58310;SDS011;45001;52.218;5.154;2022-07-21T14:03:56;3.03;;;1.40;;
58310;SDS011;45001;52.218;5.154;2022-07-21T14:06:21;3.67;;;1.60;;
58310;SDS011;45001;52.218;5.154;2022-07-21T14:08:47;2.53;;;1.60;;
58310;SDS011;45001;52.218;5.154;2022-07-21T14:11:12;3.08;;;1.60;;
58310;SDS011;45001;52.218;5.154;2022-07-21T14:13:39;2.40;;;1.38;;
58310;SDS011;45001;52.218;5.154;2022-07-21T14:16:04;3.00;;;1.63;;
58310;SDS011;45001;52.218;5.154;2022-07-21T14:18:30;2.15;;;1.67;;
58310;SDS011;45001;52.218;5.154;2022-07-21T14:20:56;3.58;;;1.83;;
58310;SDS011;45001;52.218;5.154;2022-07-21T14:23:21;2.97;;;2.33;;
58310;SDS011;45001;52.218;5.154;2022-07-21T14:25:47;3.10;;;2.15;;
58310;SDS011;45001;52.218;5.154;2022-07-21T14:28:14;3.92;;;1.92;;
58310;SDS011;45001;52.218;5.154;2022-07-21T14:30:39;2.63;;;1.95;;
58310;SDS011;45001;52.218;5.154;2022-07-21T14:33:04;3.55;;;2.28;;
58310;SDS011;45001;52.218;5.154;2022-07-21T14:35:30;3.20;;;2.50;;
58310;SDS011;45001;52.218;5.154;2022-07-21T14:37:55;3.53;;;2.78;;
58310;SDS011;45001;52.218;5.154;2022-07-21T14:40:21;3.60;;;3.10;;
58310;SDS011;45001;52.218;5.154;2022-07-21T14:42:47;4.43;;;3.38;;
58310;SDS011;45001;52.218;5.154;2022-07-21T14:45:13;4.22;;;3.20;;
58310;SDS011;45001;52.218;5.154;2022-07-21T14:47:41;5.35;;;4.00;;
58310;SDS011;45001;52.218;5.154;2022-07-21T14:50:06;4.25;;;3.65;;
58310;SDS011;45001;52.218;5.154;2022-07-21T14:52:32;4.55;;;3.80;;
58310;SDS011;45001;52.218;5.154;2022-07-21T14:54:59;3.47;;;2.35;;
58310;SDS011;45001;52.218;5.154;2022-07-21T14:57:25;2.80;;;1.73;;
58310;SDS011;45001;52.218;5.154;2022-07-21T14:59:50;2.10;;;1.40;;
58310;SDS011;45001;52.218;5.154;2022-07-21T15:02:16;3.75;;;1.33;;
58310;SDS011;45001;52.218;5.154;2022-07-21T15:04:41;2.13;;;1.02;;
58310;SDS011;45001;52.218;5.154;2022-07-21T15:07:07;2.03;;;0.70;;
58310;SDS011;45001;52.218;5.154;2022-07-21T15:09:33;2.25;;;1.02;;
58310;SDS011;45001;52.218;5.154;2022-07-21T15:11:59;1.90;;;0.82;;
58310;SDS011;45001;52.218;5.154;2022-07-21T15:14:24;2.42;;;0.75;;
58310;SDS011;45001;52.218;5.154;2022-07-21T15:16:49;2.25;;;0.95;;
58310;SDS011;45001;52.218;5.154;2022-07-21T15:19:15;2.05;;;0.68;;
58310;SDS011;45001;52.218;5.154;2022-07-21T15:21:40;3.50;;;0.98;;